Time;durP1;ratioP1;P1;durP2;ratioP2;P2;SDS_P1;SDS_P2;PMS_P1;PMS_P2;Temp;Humidity;BMP_temperature;BMP_pressure;BME280_temperature;BME280_humidity;BME280_pressure;Samples;Min_cycle;Max_cycle;Signal;HPM_P1;HPM_P2
2023/06/03 00:02:13;;;;;;;8.20;6.40;;;;;;;7.37;87.79;98279.09;106894;1277;22535;-75
2023/06/03 00:04:41;;;;;;;8.50;6.30;;;;;;;7.37;87.63;98282.48;106854;1277;22629;-76
2023/06/03 00:07:10;;;;;;;8.70;6.70;;;;;;;7.35;86.87;98285.80;106655;1277;22982;-76
2023/06/03 00:09:38;;;;;;;8.90;5.90;;;;;;;7.36;86.67;98284.67;106675;1278;25584;-75
2023/06/03 00:12:06;;;;;;;9.00;6.50;;;;;;;7.33;85.99;98287.89;106553;1277;23809;-74
2023/06/03 00:14:34;;;;;;;10.10;7.50;;;;;;;7.28;86.34;98287.95;106679;1277;22629;-74
2023/06/03 00:17:03;;;;;;;10.90;6.80;;;;;;;7.27;86.81;98293.41;106845;1277;22535;-75
2023/06/03 00:19:31;;;;;;;7.70;6.20;;;;;;;7.30;86.72;98294.39;106690;1277;22651;-74
2023/06/03 00:22:00;;;;;;;9.60;6.30;;;;;;;7.27;86.03;98291.80;106767;1272;22997;-74
2023/06/03 00:24:28;;;;;;;9.70;6.80;;;;;;;7.26;86.13;98289.35;106719;1277;22662;-75
2023/06/03 00:26:57;;;;;;;9.00;7.30;;;;;;;7.26;86.19;98291.52;106658;1277;25407;-74
2023/06/03 00:29:26;;;;;;;8.90;7.00;;;;;;;7.26;86.05;98292.35;106734;1277;25395;-74
2023/06/03 00:31:54;;;;;;;11.90;6.30;;;;;;;7.30;86.20;98293.78;106633;1277;25390;-74
2023/06/03 00:34:22;;;;;;;8.90;6.60;;;;;;;7.31;86.98;98298.45;106534;1277;25323;-74
2023/06/03 00:36:50;;;;;;;14.00;6.90;;;;;;;7.27;88.07;98298.02;106762;1277;22578;-76
2023/06/03 00:39:18;;;;;;;8.30;6.70;;;;;;;7.21;88.67;98296.98;106787;1277;22546;-74
2023/06/03 00:41:46;;;;;;;10.00;6.70;;;;;;;7.14;89.61;98297.42;106638;1277;22786;-74
2023/06/03 00:44:14;;;;;;;8.50;6.50;;;;;;;7.03;88.72;98298.63;106641;1277;22638;-74
2023/06/03 00:46:43;;;;;;;8.60;6.50;;;;;;;6.98;88.49;98298.02;106752;1269;25927;-74
2023/06/03 00:49:11;;;;;;;9.00;6.20;;;;;;;6.97;88.11;98300.81;106823;1277;22547;-74
2023/06/03 00:51:39;;;;;;;7.80;6.10;;;;;;;6.96;89.17;98298.99;106768;1269;22522;-74
2023/06/03 00:54:07;;;;;;;9.70;6.80;;;;;;;6.91;90.35;98298.55;106750;1277;24052;-75
2023/06/03 00:56:42;;;;;;;8.80;6.60;;;;;;;6.86;90.17;98301.64;106756;1277;22518;-74
2023/06/03 00:59:15;;;;;;;10.30;6.90;;;;;;;6.86;89.06;98303.10;106813;1277;25491;-75
2023/06/03 01:01:43;;;;;;;8.90;7.00;;;;;;;6.87;88.85;98309.20;106864;1277;24220;-75
2023/06/03 01:04:25;;;;;;;9.60;7.70;;;;;;;6.85;88.76;98309.10;106698;1277;25347;-76
2023/06/03 01:07:07;;;;;;;10.10;7.50;;;;;;;6.80;88.82;98307.59;106607;1277;22512;-75
2023/06/03 01:09:57;;;;;;;8.70;6.80;;;;;;;6.73;89.96;98307.30;106756;1277;24281;-75
2023/06/03 01:12:50;;;;;;;8.90;7.10;;;;;;;6.67;89.36;98309.52;106763;1277;22526;-75
2023/06/03 01:15:21;;;;;;;7.60;6.50;;;;;;;6.67;89.21;98308.02;106802;1277;25686;-75
2023/06/03 01:17:52;;;;;;;12.00;7.50;;;;;;;6.65;89.94;98307.75;106801;1277;22568;-75
2023/06/03 01:20:26;;;;;;;10.50;7.00;;;;;;;6.63;89.62;98307.63;106720;1265;22572;-74
2023/06/03 01:23:23;;;;;;;11.30;7.70;;;;;;;6.63;90.56;98307.42;106686;1277;22573;-74
2023/06/03 01:25:57;;;;;;;11.40;7.80;;;;;;;6.61;90.02;98312.34;106651;1277;22575;-75
2023/06/03 01:28:27;;;;;;;9.20;8.20;;;;;;;6.60;90.54;98314.00;106720;1277;25277;-75
2023/06/03 01:30:56;;;;;;;8.50;7.20;;;;;;;6.57;90.80;98311.74;106563;1277;22515;-74
2023/06/03 01:33:27;;;;;;;10.00;8.10;;;;;;;6.57;91.50;98314.05;107165;1277;22987;-74
2023/06/03 01:35:58;;;;;;;12.80;8.00;;;;;;;6.59;92.18;98312.77;106604;1277;25185;-74
2023/06/03 01:38:27;;;;;;;11.30;8.00;;;;;;;6.59;92.88;98312.14;106822;1277;22546;-74
2023/06/03 01:40:57;;;;;;;9.40;8.10;;;;;;;6.58;93.34;98308.42;106701;1277;22524;-74
2023/06/03 01:43:26;;;;;;;11.10;8.40;;;;;;;6.54;93.67;98311.09;106610;1265;24062;-75
2023/06/03 01:45:54;;;;;;;9.70;8.60;;;;;;;6.49;93.83;98308.66;106598;1277;25224;-74
2023/06/03 01:48:23;;;;;;;13.30;8.80;;;;;;;6.48;94.03;98310.30;106623;1277;22609;-74
2023/06/03 01:50:51;;;;;;;11.20;8.20;;;;;;;6.46;94.33;98310.36;106539;1257;26731;-74
2023/06/03 01:53:20;;;;;;;9.60;8.20;;;;;;;6.44;94.60;98316.30;106788;1277;22532;-74
2023/06/03 01:55:49;;;;;;;9.70;8.40;;;;;;;6.44;94.38;98316.77;106943;1277;22534;-74
2023/06/03 01:58:17;;;;;;;11.30;8.50;;;;;;;6.42;94.14;98316.07;106617;1277;22851;-75
2023/06/03 02:00:45;;;;;;;9.30;7.90;;;;;;;6.42;93.26;98315.53;106543;1277;25322;-75
2023/06/03 02:03:13;;;;;;;12.50;8.10;;;;;;;6.44;92.72;98319.35;106624;1277;24079;-75
2023/06/03 02:05:42;;;;;;;12.30;8.10;;;;;;;6.48;92.14;98319.05;106655;1277;22521;-75
2023/06/03 02:08:11;;;;;;;12.40;8.50;;;;;;;6.50;92.03;98315.14;106656;1277;22660;-74
2023/06/03 02:10:39;;;;;;;9.00;8.00;;;;;;;6.51;91.83;98314.71;106564;1277;26577;-75
2023/06/03 02:13:07;;;;;;;10.70;8.40;;;;;;;6.47;92.00;98315.45;106607;1277;24593;-74
2023/06/03 02:15:37;;;;;;;10.40;8.00;;;;;;;6.43;92.19;98312.70;106656;1277;23040;-81
2023/06/03 02:18:05;;;;;;;9.20;7.70;;;;;;;6.43;93.40;98320.61;106635;1277;25468;-76
2023/06/03 02:20:34;;;;;;;8.30;7.50;;;;;;;6.52;94.42;98318.67;106586;1277;22612;-76
2023/06/03 02:23:02;;;;;;;10.40;7.50;;;;;;;6.54;94.82;98321.70;106670;1277;22551;-76
2023/06/03 02:25:32;;;;;;;10.50;7.80;;;;;;;6.62;94.85;98327.23;106588;1277;22592;-77
2023/06/03 02:28:02;;;;;;;10.70;8.40;;;;;;;6.67;94.80;98333.41;106566;1277;22602;-77
2023/06/03 02:30:31;;;;;;;12.10;7.80;;;;;;;6.68;94.74;98334.02;106558;1278;23042;-76
2023/06/03 02:32:59;;;;;;;9.60;7.80;;;;;;;6.72;94.89;98333.54;106500;1278;22591;-76
2023/06/03 02:35:27;;;;;;;8.60;7.30;;;;;;;6.72;95.06;98334.02;106470;1278;22537;-77
2023/06/03 02:37:55;;;;;;;8.70;7.60;;;;;;;6.71;95.01;98337.92;106595;1277;26676;-76
2023/06/03 02:40:23;;;;;;;12.30;7.60;;;;;;;6.70;94.88;98339.03;106682;1277;25398;-77
2023/06/03 02:42:52;;;;;;;11.80;8.50;;;;;;;6.70;94.88;98339.96;106751;1277;22518;-76
2023/06/03 02:45:20;;;;;;;10.90;9.00;;;;;;;6.68;95.00;98338.35;106807;1272;24340;-76
2023/06/03 02:47:48;;;;;;;10.80;8.90;;;;;;;6.63;94.92;98342.30;106759;1277;24324;-77
2023/06/03 02:50:17;;;;;;;11.60;7.90;;;;;;;6.62;95.17;98345.61;106623;1277;22522;-77
2023/06/03 02:52:45;;;;;;;9.00;8.10;;;;;;;6.61;95.14;98344.52;106652;1277;25119;-77
2023/06/03 02:55:13;;;;;;;9.10;8.20;;;;;;;6.61;95.12;98344.27;106768;1277;22764;-78
2023/06/03 02:57:41;;;;;;;11.00;8.40;;;;;;;6.62;95.05;98343.80;106748;1277;25393;-77
2023/06/03 03:00:11;;;;;;;11.80;8.20;;;;;;;6.61;95.13;98349.18;106586;1277;22624;-79
2023/06/03 03:02:39;;;;;;;10.40;8.20;;;;;;;6.57;94.69;98353.08;106660;1276;25371;-77
2023/06/03 03:05:08;;;;;;;10.40;8.60;;;;;;;6.61;94.57;98351.96;106638;1278;22565;-77
2023/06/03 03:07:37;;;;;;;9.10;8.10;;;;;;;6.68;94.59;98352.96;106468;1278;22573;-77
2023/06/03 03:10:06;;;;;;;9.50;8.30;;;;;;;6.74;94.29;98357.42;106500;1278;22561;-77
2023/06/03 03:12:34;;;;;;;13.10;7.70;;;;;;;6.84;94.50;98358.39;106551;1278;22703;-78
2023/06/03 03:15:03;;;;;;;10.50;7.40;;;;;;;6.93;94.32;98360.96;106597;1278;22524;-78
2023/06/03 03:17:32;;;;;;;11.10;7.80;;;;;;;7.04;94.57;98362.84;106638;1269;22562;-79
2023/06/03 03:20:01;;;;;;;12.00;7.50;;;;;;;7.13;94.21;98364.20;106631;1278;23162;-78
2023/06/03 03:22:30;;;;;;;8.90;7.50;;;;;;;7.23;94.09;98366.95;106643;1278;22524;-78
2023/06/03 03:24:59;;;;;;;11.10;7.70;;;;;;;7.34;93.84;98365.41;106527;1278;22535;-78
2023/06/03 03:27:28;;;;;;;8.80;7.70;;;;;;;7.43;93.92;98366.77;106646;1278;22579;-79
2023/06/03 03:30:00;;;;;;;9.10;7.60;;;;;;;7.52;93.80;98364.79;106547;1278;22544;-78
2023/06/03 03:32:29;;;;;;;11.40;7.90;;;;;;;7.58;93.59;98366.52;106694;1278;25396;-78
2023/06/03 03:35:07;;;;;;;12.50;7.90;;;;;;;7.63;93.63;98369.41;106574;1278;22527;-77
2023/06/03 03:37:36;;;;;;;7.70;6.60;;;;;;;7.68;93.11;98375.05;106598;1278;25572;-78
2023/06/03 03:40:17;;;;;;;11.50;8.00;;;;;;;7.76;93.32;98373.23;106764;1277;23153;-77
2023/06/03 03:42:50;;;;;;;8.90;7.70;;;;;;;7.78;92.76;98374.83;106757;1277;22528;-77
2023/06/03 03:45:22;;;;;;;8.60;7.40;;;;;;;7.89;92.68;98378.27;106594;1277;23924;-79
2023/06/03 03:47:52;;;;;;;9.20;7.60;;;;;;;7.98;92.73;98377.08;107044;1277;22598;-79
2023/06/03 03:50:20;;;;;;;11.80;7.80;;;;;;;8.03;92.53;98377.45;106601;1277;25312;-79
2023/06/03 03:52:49;;;;;;;10.70;7.60;;;;;;;8.05;92.38;98380.29;106768;1277;22524;-78
2023/06/03 03:55:20;;;;;;;11.30;7.70;;;;;;;8.06;92.22;98378.61;106785;1277;22517;-78
2023/06/03 03:57:49;;;;;;;9.30;7.30;;;;;;;8.13;92.41;98381.95;106814;1277;25288;-78
2023/06/03 04:00:18;;;;;;;9.10;7.50;;;;;;;8.25;91.93;98385.59;106762;1277;22509;-77
2023/06/03 04:02:46;;;;;;;11.30;7.30;;;;;;;8.35;91.82;98389.14;106760;1277;24252;-77
2023/06/03 04:05:16;;;;;;;11.90;6.60;;;;;;;8.44;91.64;98388.09;106650;1277;23478;-78
2023/06/03 04:07:46;;;;;;;8.20;6.40;;;;;;;8.55;91.62;98391.28;106714;1254;25320;-78
2023/06/03 04:10:14;;;;;;;11.20;7.00;;;;;;;8.64;91.30;98394.69;106638;1278;24344;-78
2023/06/03 04:12:42;;;;;;;10.90;6.70;;;;;;;8.73;91.34;98396.48;106595;1278;22572;-78
2023/06/03 04:15:12;;;;;;;9.10;6.90;;;;;;;8.79;91.03;98398.41;106715;1277;22640;-77
2023/06/03 04:17:41;;;;;;;9.10;6.90;;;;;;;8.78;90.51;98403.45;106666;1277;22514;-78
2023/06/03 04:20:45;;;;;;;9.50;7.00;;;;;;;8.81;90.24;98401.46;106746;1277;24330;-78
2023/06/03 04:23:17;;;;;;;10.30;6.50;;;;;;;8.72;89.32;98395.80;106653;1269;25236;-78
2023/06/03 04:25:45;;;;;;;10.40;6.50;;;;;;;8.75;89.55;98396.05;106790;1277;22937;-78
2023/06/03 04:28:13;;;;;;;8.60;6.30;;;;;;;8.83;89.75;98398.88;106642;1270;24336;-78
2023/06/03 04:30:41;;;;;;;7.90;6.10;;;;;;;8.90;89.35;98399.92;106901;1277;22519;-78
2023/06/03 04:33:09;;;;;;;11.00;7.30;;;;;;;8.98;89.31;98399.77;106890;1277;23877;-78
2023/06/03 04:35:38;;;;;;;9.60;6.40;;;;;;;9.04;88.88;98402.29;106702;1277;25399;-78
2023/06/03 04:38:06;;;;;;;10.10;6.10;;;;;;;9.10;88.69;98402.90;106802;1277;24059;-78
2023/06/03 04:40:37;;;;;;;11.00;6.50;;;;;;;9.21;88.83;98404.77;106833;1277;22546;-77
2023/06/03 04:43:05;;;;;;;11.70;7.20;;;;;;;9.27;88.10;98409.36;106987;1269;25265;-76
2023/06/03 04:45:34;;;;;;;12.80;6.70;;;;;;;9.28;88.01;98410.39;106919;1277;22569;-77
2023/06/03 04:48:03;;;;;;;8.00;6.30;;;;;;;9.31;87.44;98409.78;106858;1277;22661;-77
2023/06/03 04:50:35;;;;;;;10.80;6.60;;;;;;;9.32;87.52;98410.30;106809;1277;22528;-77
2023/06/03 04:53:05;;;;;;;9.30;6.60;;;;;;;9.37;88.00;98412.80;106773;1277;23897;-77
2023/06/03 04:55:34;;;;;;;12.10;6.90;;;;;;;9.45;87.39;98415.23;106855;1265;22577;-76
2023/06/03 04:58:03;;;;;;;9.60;7.10;;;;;;;9.51;86.88;98421.33;106818;1277;24089;-77
2023/06/03 05:00:32;;;;;;;9.20;6.80;;;;;;;9.61;86.96;98418.64;106750;1278;22630;-77
2023/06/03 05:03:08;;;;;;;7.70;6.60;;;;;;;9.76;87.31;98420.14;106902;1277;24173;-77
2023/06/03 05:05:43;;;;;;;8.40;7.20;;;;;;;9.98;87.60;98425.10;106990;1278;25287;-77
2023/06/03 05:08:14;;;;;;;11.80;6.50;;;;;;;10.15;87.28;98426.19;106766;1270;22529;-77
2023/06/03 05:10:43;;;;;;;10.00;7.00;;;;;;;10.28;86.92;98421.15;106905;1277;22603;-77
2023/06/03 05:13:11;;;;;;;8.20;7.10;;;;;;;10.37;86.78;98418.64;106849;1270;22607;-77
2023/06/03 05:15:42;;;;;;;11.80;7.00;;;;;;;10.46;86.34;98419.89;106774;1277;24368;-77
2023/06/03 05:18:10;;;;;;;12.10;7.30;;;;;;;10.57;86.42;98425.88;106674;1277;22729;-77
2023/06/03 05:20:38;;;;;;;10.10;6.30;;;;;;;10.65;85.78;98426.06;106701;1277;22551;-77
2023/06/03 05:23:06;;;;;;;14.70;6.70;;;;;;;10.77;86.05;98427.48;106736;1277;24217;-76
2023/06/03 05:25:34;;;;;;;9.60;6.60;;;;;;;10.89;85.89;98428.27;106677;1277;25309;-77
2023/06/03 05:28:02;;;;;;;8.20;6.60;;;;;;;11.00;85.85;98430.84;106839;1277;22543;-76
2023/06/03 05:30:35;;;;;;;12.50;6.10;;;;;;;11.04;85.45;98430.36;106831;1275;22531;-77
2023/06/03 05:33:04;;;;;;;8.00;6.20;;;;;;;11.11;85.82;98427.95;107071;1277;22633;-77
2023/06/03 05:35:32;;;;;;;8.80;6.80;;;;;;;11.20;84.98;98427.30;107037;1277;22659;-77
2023/06/03 05:38:00;;;;;;;12.40;6.60;;;;;;;11.27;85.10;98426.41;107037;1277;25386;-76
2023/06/03 05:40:28;;;;;;;8.80;6.30;;;;;;;11.35;84.55;98427.54;107042;1277;22640;-76
2023/06/03 05:42:57;;;;;;;9.00;6.50;;;;;;;11.36;83.98;98426.92;106905;1277;22522;-77
2023/06/03 05:45:26;;;;;;;11.20;8.10;;;;;;;11.40;84.07;98426.55;106925;1277;25322;-77
2023/06/03 05:47:54;;;;;;;9.20;5.80;;;;;;;11.53;84.25;98430.69;106924;1277;22577;-77
2023/06/03 05:50:23;;;;;;;9.80;5.90;;;;;;;11.63;82.98;98430.97;106869;1275;22785;-77
2023/06/03 05:52:55;;;;;;;11.10;5.90;;;;;;;11.68;82.38;98432.33;106749;1277;186604;-77
2023/06/03 05:55:23;;;;;;;8.00;5.70;;;;;;;11.72;82.53;98425.72;106907;1277;22562;-76
2023/06/03 05:57:51;;;;;;;7.20;5.20;;;;;;;11.85;81.96;98433.86;106888;1277;22686;-76
2023/06/03 06:00:19;;;;;;;10.00;5.50;;;;;;;11.94;80.95;98441.23;106997;1277;22539;-76
2023/06/03 06:02:48;;;;;;;9.80;5.70;;;;;;;11.97;80.60;98439.58;106952;1277;22530;-76
2023/06/03 06:05:17;;;;;;;8.90;5.30;;;;;;;12.00;80.31;98441.67;106862;1277;22697;-76
2023/06/03 06:07:45;;;;;;;7.10;5.70;;;;;;;12.03;78.78;98445.30;106960;1277;22572;-76
2023/06/03 06:10:13;;;;;;;7.50;5.50;;;;;;;12.02;77.71;98445.97;106880;1275;22537;-76
2023/06/03 06:12:41;;;;;;;9.00;5.80;;;;;;;12.05;78.62;98448.56;107015;1277;22602;-76
2023/06/03 06:15:10;;;;;;;9.00;5.50;;;;;;;12.12;78.22;98451.70;107043;1273;24359;-76
2023/06/03 06:17:38;;;;;;;12.20;5.90;;;;;;;12.16;77.33;98454.71;106949;1277;22527;-77
2023/06/03 06:20:09;;;;;;;10.40;5.60;;;;;;;12.18;77.11;98456.30;107084;1275;22524;-75
2023/06/03 06:22:37;;;;;;;9.30;6.00;;;;;;;12.29;77.68;98455.63;107034;1277;22541;-78
2023/06/03 06:25:09;;;;;;;8.00;6.30;;;;;;;12.38;77.07;98456.84;106854;1277;22581;-75
2023/06/03 06:27:38;;;;;;;10.70;5.70;;;;;;;12.49;77.71;98463.18;107412;1277;24183;-75
2023/06/03 06:30:07;;;;;;;8.40;5.00;;;;;;;12.58;77.55;98464.96;106667;1272;23116;-76
2023/06/03 06:32:47;;;;;;;6.80;5.20;;;;;;;12.67;77.57;98460.76;106542;1277;24205;-76
2023/06/03 06:35:20;;;;;;;9.00;5.10;;;;;;;12.76;74.69;98464.11;106783;1275;22532;-76
2023/06/03 06:37:49;;;;;;;10.80;5.10;;;;;;;12.78;75.95;98462.77;106756;1277;25285;-76
2023/06/03 06:40:19;;;;;;;10.40;4.70;;;;;;;12.86;74.61;98462.45;106651;1277;22648;-75
2023/06/03 06:42:48;;;;;;;9.70;5.10;;;;;;;12.90;72.66;98459.28;106666;1278;24212;-75
2023/06/03 06:45:37;;;;;;;8.10;4.80;;;;;;;12.94;72.09;98456.02;106597;1277;25429;-75
2023/06/03 06:48:08;;;;;;;8.10;5.00;;;;;;;13.03;71.89;98464.98;106702;1277;25329;-75
2023/06/03 06:50:55;;;;;;;8.10;4.70;;;;;;;13.09;72.41;98464.55;106549;1272;22508;-76
2023/06/03 06:53:28;;;;;;;8.40;4.60;;;;;;;13.20;71.33;98466.60;106661;1277;22547;-76
2023/06/03 06:56:09;;;;;;;6.70;4.20;;;;;;;13.20;70.14;98472.71;106811;1266;22615;-75
2023/06/03 06:58:47;;;;;;;9.30;4.60;;;;;;;13.27;70.87;98467.84;106707;1256;22528;-76
2023/06/03 07:01:15;;;;;;;9.90;4.80;;;;;;;13.46;69.74;98468.11;106996;1277;22826;-76
2023/06/03 07:03:46;;;;;;;11.00;5.30;;;;;;;13.54;68.96;98469.44;106869;1278;22738;-76
2023/06/03 07:06:14;;;;;;;7.80;4.90;;;;;;;13.59;69.14;98471.71;106764;1278;22640;-76
2023/06/03 07:08:43;;;;;;;9.10;5.20;;;;;;;13.66;68.61;98471.55;106757;1278;22732;-76
2023/06/03 07:11:11;;;;;;;8.50;4.30;;;;;;;13.85;68.43;98473.04;106763;1274;22563;-76
2023/06/03 07:13:50;;;;;;;7.70;4.50;;;;;;;14.00;68.97;98467.11;107070;1278;25339;-77
2023/06/03 07:16:19;;;;;;;7.30;4.60;;;;;;;14.12;68.23;98467.85;107500;1278;22520;-78
2023/06/03 07:18:50;;;;;;;9.90;4.60;;;;;;;14.21;67.69;98470.85;106706;1278;25356;-77
2023/06/03 07:21:23;;;;;;;7.00;4.30;;;;;;;14.33;67.56;98475.16;107419;1278;22588;-78
2023/06/03 07:23:52;;;;;;;9.10;4.50;;;;;;;14.52;67.10;98481.28;106723;1278;22528;-77
2023/06/03 07:26:21;;;;;;;11.90;5.10;;;;;;;14.63;67.81;98485.27;106726;1278;25491;-77
2023/06/03 07:28:49;;;;;;;12.70;4.70;;;;;;;14.73;67.81;98480.29;106736;1278;22817;-76
2023/06/03 07:31:18;;;;;;;8.10;4.60;;;;;;;14.81;67.39;98475.31;106772;1278;22921;-76
2023/06/03 07:33:53;;;;;;;9.10;4.30;;;;;;;14.81;67.05;98486.42;106886;1278;24328;-76
2023/06/03 07:36:41;;;;;;;;;;;;;;;14.84;66.62;98492.02;106944;1277;22617;-76
2023/06/03 07:39:15;;;;;;;8.50;4.80;;;;;;;14.74;66.17;98489.64;106856;1277;22679;-76
2023/06/03 07:41:51;;;;;;;9.50;4.70;;;;;;;14.78;66.65;98493.90;106861;1278;24338;-76
2023/06/03 07:44:41;;;;;;;5.80;4.40;;;;;;;14.86;66.36;98492.38;106655;1256;22511;-77
2023/06/03 07:47:13;;;;;;;9.60;4.60;;;;;;;15.02;65.52;98493.06;107183;1277;22642;-76
2023/06/03 07:49:47;;;;;;;7.40;4.90;;;;;;;14.92;64.89;98496.93;107128;1277;22535;-76
2023/06/03 07:52:19;;;;;;;8.10;4.60;;;;;;;14.72;65.75;98497.64;107040;1277;25915;-76
2023/06/03 07:54:49;;;;;;;8.20;4.80;;;;;;;14.67;65.39;98499.44;106889;1277;22537;-78
2023/06/03 07:57:17;;;;;;;7.90;4.70;;;;;;;14.59;65.82;98501.23;107202;1277;23963;-77
2023/06/03 07:59:52;;;;;;;10.20;4.60;;;;;;;14.62;65.86;98502.23;106932;1275;25590;-77
2023/06/03 08:02:21;;;;;;;8.60;5.90;;;;;;;14.76;66.11;98494.70;107116;1278;24200;-75
2023/06/03 08:04:53;;;;;;;9.10;4.50;;;;;;;14.81;65.50;98495.17;106951;1277;22675;-76
2023/06/03 08:07:22;;;;;;;9.00;4.40;;;;;;;14.97;64.39;98495.55;106879;1273;25380;-76
2023/06/03 08:09:50;;;;;;;10.70;5.00;;;;;;;15.19;63.73;98500.98;106793;1278;23929;-77
2023/06/03 08:12:26;;;;;;;9.50;4.60;;;;;;;15.48;63.87;98495.54;106651;1278;24607;-77
2023/06/03 08:14:54;;;;;;;6.30;3.90;;;;;;;15.76;62.93;98487.91;106672;1270;23432;-77
2023/06/03 08:17:39;;;;;;;8.10;4.50;;;;;;;15.91;62.48;98497.55;106695;1278;22717;-77
2023/06/03 08:20:10;;;;;;;7.80;3.70;;;;;;;15.98;62.42;98496.77;106697;1278;23464;-77
2023/06/03 08:22:43;;;;;;;9.30;3.80;;;;;;;15.89;62.40;98502.41;106701;1278;24177;-77
2023/06/03 08:25:13;;;;;;;7.20;3.50;;;;;;;15.77;62.21;98511.89;106762;1278;22624;-77
2023/06/03 08:27:41;;;;;;;7.40;3.70;;;;;;;15.65;61.19;98510.44;107281;1278;22627;-76
2023/06/03 08:30:14;;;;;;;7.80;3.50;;;;;;;15.53;61.66;98508.30;106836;1277;25245;-76
2023/06/03 08:32:44;;;;;;;6.80;3.50;;;;;;;15.44;60.34;98511.53;106974;1277;22547;-75
2023/06/03 08:35:15;;;;;;;10.70;3.00;;;;;;;15.31;59.96;98506.64;106669;1277;22519;-76
2023/06/03 08:37:43;;;;;;;5.20;3.50;;;;;;;15.21;58.95;98512.17;107035;1277;22529;-76
2023/06/03 08:40:13;;;;;;;8.30;3.00;;;;;;;15.29;58.13;98512.21;106838;1277;22553;-76
2023/06/03 08:42:42;;;;;;;4.40;2.70;;;;;;;15.52;55.60;98510.08;106994;1277;25275;-76
2023/06/03 08:45:12;;;;;;;5.20;3.00;;;;;;;15.77;55.97;98513.25;106973;1277;24480;-77
2023/06/03 08:47:56;;;;;;;6.60;2.80;;;;;;;15.73;54.64;98521.86;107058;1277;22528;-76
2023/06/03 08:50:26;;;;;;;5.50;3.00;;;;;;;15.79;56.28;98518.18;106836;1277;24381;-76
2023/06/03 08:52:55;;;;;;;14.80;3.50;;;;;;;16.02;55.75;98517.29;106824;1277;22732;-75
2023/06/03 08:55:23;;;;;;;4.90;2.80;;;;;;;16.17;54.06;98515.61;106829;1277;25472;-76
2023/06/03 08:58:02;;;;;;;5.30;3.20;;;;;;;16.07;52.88;98518.44;106895;1277;22655;-76
2023/06/03 09:00:32;;;;;;;6.60;3.20;;;;;;;15.82;52.49;98522.70;106893;1277;24049;-77
2023/06/03 09:03:01;;;;;;;6.20;3.20;;;;;;;15.87;51.62;98520.98;106868;1278;22517;-77
2023/06/03 09:05:30;;;;;;;10.00;3.20;;;;;;;16.00;51.60;98512.94;106794;1272;25124;-77
2023/06/03 09:08:00;;;;;;;6.20;3.20;;;;;;;16.11;50.08;98518.19;106669;1278;22931;-76
2023/06/03 09:10:28;;;;;;;5.80;3.20;;;;;;;16.27;51.77;98521.60;106658;1278;25330;-76
2023/06/03 09:12:58;;;;;;;6.30;3.40;;;;;;;16.21;51.90;98520.48;106693;1278;25532;-76
2023/06/03 09:15:28;;;;;;;4.80;3.10;;;;;;;16.16;50.43;98515.82;106708;1275;22555;-77
2023/06/03 09:17:56;;;;;;;7.20;3.50;;;;;;;16.26;50.72;98514.89;106784;1278;23358;-77
2023/06/03 09:20:25;;;;;;;7.80;3.00;;;;;;;16.39;48.63;98513.34;106724;1278;22545;-76
2023/06/03 09:22:55;;;;;;;6.80;3.30;;;;;;;16.45;49.65;98508.14;106724;1278;25386;-76
2023/06/03 09:25:23;;;;;;;7.00;3.00;;;;;;;16.58;50.18;98507.23;106791;1278;25501;-77
2023/06/03 09:27:51;;;;;;;6.60;3.30;;;;;;;16.72;48.55;98511.33;106661;1278;25398;-77
2023/06/03 09:30:19;;;;;;;21.40;3.90;;;;;;;16.77;49.32;98508.55;106726;1278;25579;-77
2023/06/03 09:32:47;;;;;;;8.30;3.00;;;;;;;16.79;48.62;98508.16;106719;1278;22738;-76
2023/06/03 09:35:18;;;;;;;6.80;2.70;;;;;;;16.83;49.03;98503.13;106780;1278;25336;-74
2023/06/03 09:38:01;;;;;;;7.60;3.00;;;;;;;17.18;50.20;98498.19;106825;1278;26837;-74
2023/06/03 09:40:31;;;;;;;6.20;2.80;;;;;;;17.58;48.83;98495.10;106677;1278;25539;-74
2023/06/03 09:42:59;;;;;;;5.70;2.70;;;;;;;17.87;48.40;98499.80;106805;1278;22560;-75
2023/06/03 09:45:29;;;;;;;5.80;2.80;;;;;;;17.86;45.93;98499.08;106769;1278;22672;-76
2023/06/03 09:47:59;;;;;;;3.30;2.30;;;;;;;17.91;46.83;98496.66;106766;1278;25373;-75
2023/06/03 09:50:31;;;;;;;6.30;3.00;;;;;;;17.99;45.76;98497.37;106755;1256;23614;-75
2023/06/03 09:53:00;;;;;;;5.90;2.40;;;;;;;18.04;46.33;98496.95;106764;1278;22675;-75
2023/06/03 09:55:34;;;;;;;9.90;2.70;;;;;;;18.19;44.82;98490.30;106745;1278;22560;-76
2023/06/03 09:58:09;;;;;;;5.40;2.40;;;;;;;18.19;45.05;98493.50;107566;1278;23860;-76
2023/06/03 10:00:50;;;;;;;6.40;2.80;;;;;;;18.24;45.34;98487.06;107968;1278;22540;-75
2023/06/03 10:03:23;;;;;;;3.80;2.30;;;;;;;18.42;44.42;98492.28;106824;1278;24199;-76
2023/06/03 10:05:51;;;;;;;8.80;2.70;;;;;;;18.51;44.37;98487.86;107006;1278;23506;-76
2023/06/03 10:08:29;;;;;;;6.60;2.20;;;;;;;18.63;44.71;98481.42;106676;1278;22564;-75
2023/06/03 10:10:59;;;;;;;5.90;2.40;;;;;;;18.75;43.53;98489.66;106773;1278;22542;-76
2023/06/03 10:13:27;;;;;;;4.70;2.50;;;;;;;18.80;43.43;98488.74;106979;1278;22604;-76
2023/06/03 10:15:58;;;;;;;4.80;2.60;;;;;;;18.89;43.31;98494.04;106724;1278;22641;-76
2023/06/03 10:18:40;;;;;;;4.00;2.50;;;;;;;18.94;43.69;98489.27;106694;1278;22565;-77
2023/06/03 10:21:11;;;;;;;9.10;2.60;;;;;;;18.92;42.47;98488.11;106761;1277;24072;-76
2023/06/03 10:23:41;;;;;;;4.20;2.70;;;;;;;18.84;39.73;98480.12;106781;1278;24194;-76
2023/06/03 10:26:10;;;;;;;4.20;2.30;;;;;;;18.43;40.39;98474.55;106913;1278;24288;-76
2023/06/03 10:28:39;;;;;;;5.20;2.20;;;;;;;18.46;40.77;98477.62;106806;1278;25268;-77
2023/06/03 10:31:07;;;;;;;9.70;3.00;;;;;;;18.66;41.68;98478.85;107328;1278;25588;-77
2023/06/03 10:33:38;;;;;;;5.10;2.30;;;;;;;18.81;40.68;98483.85;106837;1278;23079;-77
2023/06/03 10:36:07;;;;;;;6.20;2.70;;;;;;;18.95;42.00;98473.38;107237;1278;25342;-77
2023/06/03 10:38:38;;;;;;;6.20;2.30;;;;;;;19.18;40.61;98480.52;107250;1278;25278;-76
2023/06/03 10:41:09;;;;;;;8.20;2.60;;;;;;;19.29;39.37;98474.49;106678;1278;23450;-75
2023/06/03 10:43:39;;;;;;;5.50;2.40;;;;;;;19.35;38.88;98472.86;106725;1278;22524;-76
2023/06/03 10:46:08;;;;;;;4.80;2.30;;;;;;;19.24;38.25;98471.52;106685;1278;22819;-75
2023/06/03 10:48:38;;;;;;;7.60;2.40;;;;;;;19.27;38.86;98469.11;106531;1278;25293;-75
2023/06/03 10:51:18;;;;;;;4.80;2.70;;;;;;;19.40;39.40;98464.69;106468;1278;24206;-75
2023/06/03 10:54:02;;;;;;;11.30;2.40;;;;;;;19.55;38.48;98465.38;106631;1278;25451;-75
2023/06/03 10:56:47;;;;;;;;;;;;;;;19.68;38.28;98466.44;106694;1270;22530;-76
2023/06/03 10:59:18;;;;;;;7.00;2.90;;;;;;;19.79;39.00;98466.75;106742;1278;22935;-76
2023/06/03 11:02:01;;;;;;;4.60;2.60;;;;;;;19.94;39.01;98455.45;106996;1271;22533;-76
2023/06/03 11:04:32;;;;;;;4.70;2.40;;;;;;;20.03;38.66;98461.96;107054;1277;24004;-75
2023/06/03 11:07:00;;;;;;;3.10;2.10;;;;;;;19.98;37.95;98462.05;106703;1270;24273;-75
2023/06/03 11:09:36;;;;;;;4.20;2.00;;;;;;;19.99;37.55;98459.65;106660;1278;22523;-75
2023/06/03 11:12:14;;;;;;;4.70;2.00;;;;;;;20.01;37.68;98461.59;106664;1278;22508;-76
2023/06/03 11:14:48;;;;;;;4.50;2.00;;;;;;;20.00;36.57;98454.91;106670;1278;22527;-76
2023/06/03 11:17:18;;;;;;;8.20;2.90;;;;;;;19.90;36.95;98456.05;106673;1274;25363;-75
2023/06/03 11:19:49;;;;;;;7.20;2.30;;;;;;;19.90;37.67;98451.84;106657;1278;22537;-76
2023/06/03 11:22:27;;;;;;;7.10;2.50;;;;;;;19.97;36.98;98454.14;106515;1278;22559;-75
2023/06/03 11:24:59;;;;;;;8.00;2.20;;;;;;;19.87;36.20;98457.61;106627;1278;22527;-75
2023/06/03 11:27:29;;;;;;;6.00;2.60;;;;;;;19.83;35.74;98455.23;106620;1278;24343;-76
2023/06/03 11:30:00;;;;;;;4.70;2.10;;;;;;;19.55;34.45;98451.16;106589;1278;25284;-75
2023/06/03 11:32:28;;;;;;;4.70;2.90;;;;;;;19.27;35.61;98452.02;106587;1278;23931;-74
2023/06/03 11:34:59;;;;;;;8.20;2.70;;;;;;;19.32;35.83;98454.61;106541;1278;23923;-73
2023/06/03 11:37:40;;;;;;;8.20;2.60;;;;;;;19.38;35.14;98451.95;106487;1278;22838;-74
2023/06/03 11:40:17;;;;;;;7.30;2.40;;;;;;;19.48;36.15;98449.53;106552;1278;24259;-74
2023/06/03 11:42:47;;;;;;;6.10;2.30;;;;;;;19.71;34.96;98453.62;106631;1277;22739;-76
2023/06/03 11:45:24;;;;;;;5.50;2.30;;;;;;;19.75;34.21;98455.46;106593;1277;22523;-75